createdAt,value
2019-05-12T00:01:03.508Z,2.30
2019-05-12T00:03:33.177Z,2.33
2019-05-12T00:06:03.103Z,2.73
2019-05-12T00:08:32.991Z,3.33
2019-05-12T00:11:03.094Z,2.40
2019-05-12T00:13:32.780Z,2.50
2019-05-12T00:16:02.740Z,2.70
2019-05-12T00:18:32.430Z,2.43
2019-05-12T00:21:02.108Z,2.33
2019-05-12T00:23:31.819Z,2.70
2019-05-12T00:26:01.643Z,2.73
2019-05-12T00:28:31.308Z,2.57
2019-05-12T00:31:00.965Z,2.53
2019-05-12T00:33:30.595Z,2.67
2019-05-12T00:36:00.257Z,3.10
2019-05-12T00:38:30.211Z,2.97
2019-05-12T00:40:59.892Z,2.70
2019-05-12T00:43:29.611Z,2.23
2019-05-12T00:45:59.633Z,2.70
2019-05-12T00:48:29.277Z,2.83
2019-05-12T00:50:58.926Z,2.50
2019-05-12T00:53:39.892Z,2.33
2019-05-12T00:56:01.029Z,2.80
2019-05-12T00:58:30.668Z,2.83
2019-05-12T01:01:00.335Z,2.80
2019-05-12T01:03:29.993Z,2.60
2019-05-12T01:05:59.648Z,2.80
2019-05-12T01:08:29.735Z,2.63
2019-05-12T01:10:59.673Z,2.50
2019-05-12T01:13:30.399Z,2.60
2019-05-12T01:16:00.056Z,2.70
2019-05-12T01:18:29.765Z,3.00
2019-05-12T01:20:59.413Z,2.77
2019-05-12T01:23:29.388Z,2.60
2019-05-12T01:25:59.311Z,2.80
2019-05-12T01:28:28.992Z,2.80
2019-05-12T01:31:00.636Z,2.70
2019-05-12T01:33:30.603Z,2.97
2019-05-12T01:36:00.335Z,3.30
2019-05-12T01:38:30.268Z,2.73
2019-05-12T01:40:59.927Z,2.80
2019-05-12T01:43:29.595Z,2.93
2019-05-12T01:45:59.232Z,3.20
2019-05-12T01:48:28.983Z,2.93
2019-05-12T01:50:58.939Z,3.00
2019-05-12T01:53:28.844Z,2.87
2019-05-12T01:55:58.752Z,3.03
2019-05-12T01:58:28.801Z,3.50
2019-05-12T02:00:59.002Z,2.97
2019-05-12T02:03:28.878Z,2.70
2019-05-12T02:05:59.712Z,3.13
2019-05-12T02:08:35.444Z,3.00
2019-05-12T02:11:23.153Z,3.40
2019-05-12T02:13:52.864Z,3.37
2019-05-12T02:16:22.875Z,3.00
2019-05-12T02:18:52.677Z,3.70
2019-05-12T02:21:22.319Z,3.03
2019-05-12T02:23:52.091Z,3.07
2019-05-12T02:26:21.996Z,3.10
2019-05-12T02:28:51.687Z,3.33
2019-05-12T02:31:21.632Z,3.20
2019-05-12T02:33:54.899Z,3.43
2019-05-12T02:36:25.796Z,3.10
2019-05-12T02:38:55.970Z,3.27
2019-05-12T02:41:26.322Z,3.20
2019-05-12T02:43:56.051Z,3.33
2019-05-12T02:46:25.964Z,3.20
2019-05-12T02:48:56.004Z,3.47
2019-05-12T02:51:25.663Z,3.10
2019-05-12T02:53:56.025Z,3.47
2019-05-12T02:56:27.515Z,3.40
2019-05-12T02:58:58.562Z,3.17
2019-05-12T03:01:29.525Z,3.60
2019-05-12T03:04:00.030Z,3.37
2019-05-12T03:06:31.265Z,3.53
2019-05-12T03:09:06.705Z,3.53
2019-05-12T03:11:37.235Z,3.30
2019-05-12T03:14:07.152Z,3.37
2019-05-12T03:16:37.133Z,3.73
2019-05-12T03:19:06.945Z,3.50
2019-05-12T03:21:36.976Z,3.57
2019-05-12T03:24:07.082Z,3.67
2019-05-12T03:26:37.805Z,3.30
2019-05-12T03:29:07.510Z,3.10
2019-05-12T03:31:40.975Z,3.47
2019-05-12T03:34:11.289Z,3.23
2019-05-12T03:36:43.222Z,2.77
2019-05-12T03:39:15.002Z,3.37
2019-05-12T03:41:44.581Z,3.30
2019-05-12T03:44:15.286Z,3.20
2019-05-12T03:46:45.911Z,2.90
2019-05-12T03:49:15.804Z,3.20
2019-05-12T03:51:46.546Z,3.40
2019-05-12T03:54:16.241Z,3.33
2019-05-12T03:56:46.383Z,3.20
2019-05-12T03:59:16.090Z,3.10
2019-05-12T04:01:45.764Z,3.33
2019-05-12T04:04:15.801Z,3.50
2019-05-12T04:06:45.984Z,3.33
2019-05-12T04:09:15.955Z,3.00
2019-05-12T04:11:45.921Z,3.53
2019-05-12T04:14:16.533Z,3.40
2019-05-12T04:16:46.781Z,3.57
2019-05-12T04:19:16.489Z,3.27
2019-05-12T04:21:46.434Z,3.13
2019-05-12T04:24:16.188Z,3.70
2019-05-12T04:26:45.943Z,3.10
2019-05-12T04:29:15.940Z,3.13
2019-05-12T04:31:45.639Z,3.60
2019-05-12T04:34:19.094Z,3.50
2019-05-12T04:36:47.659Z,3.77
2019-05-12T04:39:18.379Z,3.40
2019-05-12T04:41:48.039Z,3.53
2019-05-12T04:44:17.680Z,3.60
2019-05-12T04:46:47.338Z,3.33
2019-05-12T04:49:17.072Z,3.30
2019-05-12T04:51:46.705Z,3.30
2019-05-12T04:54:16.373Z,3.80
2019-05-12T04:56:46.029Z,3.27
2019-05-12T04:59:16.403Z,3.50
2019-05-12T05:01:46.070Z,3.10
2019-05-12T05:04:16.047Z,3.23
2019-05-12T05:06:46.501Z,3.40
2019-05-12T05:09:16.160Z,3.27
2019-05-12T05:11:46.149Z,3.00
2019-05-12T05:14:16.029Z,3.70
2019-05-12T05:16:45.755Z,3.43
2019-05-12T05:19:15.486Z,3.60
2019-05-12T05:21:45.159Z,2.87
2019-05-12T05:24:14.939Z,3.33
2019-05-12T05:26:45.549Z,3.03
2019-05-12T05:29:15.218Z,2.90
2019-05-12T05:31:45.161Z,2.63
2019-05-12T05:34:16.795Z,2.90
2019-05-12T05:36:51.096Z,3.00
2019-05-12T05:39:17.843Z,2.50
2019-05-12T05:41:50.849Z,2.50
2019-05-12T05:44:18.899Z,2.70
2019-05-12T05:46:50.265Z,2.30
2019-05-12T05:49:20.152Z,2.17
2019-05-12T05:51:54.486Z,3.00
2019-05-12T05:54:31.092Z,2.63
2019-05-12T05:56:59.647Z,2.70
2019-05-12T05:59:31.465Z,2.47
2019-05-12T06:01:57.391Z,2.13
2019-05-12T06:04:27.075Z,2.77
2019-05-12T06:06:56.847Z,2.03
2019-05-12T06:09:26.531Z,2.90
2019-05-12T06:11:58.996Z,2.20
2019-05-12T06:14:27.929Z,2.37
2019-05-12T06:16:58.184Z,1.87
2019-05-12T06:19:28.208Z,2.03
2019-05-12T06:21:57.853Z,2.37
2019-05-12T06:24:27.506Z,2.30
2019-05-12T06:27:00.817Z,2.03
2019-05-12T06:29:29.484Z,2.17
2019-05-12T06:32:08.726Z,2.00
2019-05-12T06:34:34.167Z,2.37
2019-05-12T06:37:11.859Z,2.67
2019-05-12T06:39:35.773Z,2.07
2019-05-12T06:42:12.333Z,2.00
2019-05-12T06:44:37.355Z,2.27
2019-05-12T06:47:08.369Z,1.80
2019-05-12T06:49:38.208Z,2.40
2019-05-12T06:52:07.909Z,1.70
2019-05-12T06:54:42.630Z,1.90
2019-05-12T06:57:20.949Z,1.90
2019-05-12T06:59:42.005Z,1.80
2019-05-12T07:02:13.799Z,1.50
2019-05-12T07:04:47.351Z,2.03
2019-05-12T07:07:16.331Z,2.10
2019-05-12T07:09:54.127Z,2.47
2019-05-12T07:12:17.811Z,2.00
2019-05-12T07:14:48.892Z,1.93
2019-05-12T07:17:49.674Z,1.67
2019-05-12T07:20:15.929Z,1.80
2019-05-12T07:22:48.575Z,1.60
2019-05-12T07:25:22.922Z,1.80
2019-05-12T07:27:55.167Z,1.70
2019-05-12T07:30:31.716Z,2.03
2019-05-12T07:33:01.420Z,1.47
2019-05-12T07:35:33.946Z,1.70
2019-05-12T07:38:05.223Z,1.93
2019-05-12T07:40:37.922Z,1.60
2019-05-12T07:43:09.827Z,1.90
2019-05-12T07:45:39.791Z,1.80
2019-05-12T07:48:10.441Z,1.70
2019-05-12T07:50:40.268Z,1.80
2019-05-12T07:53:10.220Z,1.57
2019-05-12T07:55:45.390Z,1.60
2019-05-12T07:58:15.544Z,1.63
2019-05-12T08:00:44.412Z,1.53
2019-05-12T08:03:19.032Z,1.70
2019-05-12T08:05:45.920Z,2.00
2019-05-12T08:08:15.905Z,1.60
2019-05-12T08:10:51.394Z,1.57
2019-05-12T08:13:18.764Z,1.63
2019-05-12T08:15:53.262Z,1.80
2019-05-12T08:18:21.580Z,1.70
2019-05-12T08:20:51.319Z,1.87
2019-05-12T08:23:23.276Z,1.60
2019-05-12T08:25:53.988Z,1.80
2019-05-12T08:28:34.687Z,1.60
2019-05-12T08:30:55.955Z,1.90
2019-05-12T08:33:25.755Z,1.70
2019-05-12T08:35:55.747Z,1.53
2019-05-12T08:38:25.416Z,1.83
2019-05-12T08:40:55.060Z,1.43
2019-05-12T08:43:24.723Z,2.00
2019-05-12T08:45:54.390Z,1.67
2019-05-12T08:48:24.974Z,1.50
2019-05-12T08:50:55.056Z,1.50
2019-05-12T08:53:26.162Z,1.40
2019-05-12T08:55:56.222Z,1.67
2019-05-12T08:58:33.610Z,1.60
2019-05-12T09:00:57.339Z,1.77
2019-05-12T09:03:30.566Z,1.50
2019-05-12T09:05:58.609Z,1.43
2019-05-12T09:08:29.528Z,1.60
2019-05-12T09:10:59.411Z,1.40
2019-05-12T09:13:29.147Z,1.87
2019-05-12T09:15:58.801Z,1.77
2019-05-12T09:18:34.226Z,1.57
2019-05-12T09:20:59.889Z,1.53
2019-05-12T09:23:32.803Z,1.30
2019-05-12T09:26:01.505Z,1.27
2019-05-12T09:28:44.377Z,1.20
2019-05-12T09:31:03.703Z,1.37
2019-05-12T09:33:34.724Z,1.20
2019-05-12T09:36:04.926Z,1.43
2019-05-12T09:38:34.724Z,1.27
2019-05-12T09:41:05.439Z,1.50
2019-05-12T09:43:40.181Z,1.40
2019-05-12T09:46:07.767Z,1.40
2019-05-12T09:48:39.119Z,1.20
2019-05-12T09:51:09.364Z,1.30
2019-05-12T09:53:44.145Z,1.40
2019-05-12T09:56:10.488Z,1.50
2019-05-12T09:58:40.160Z,1.23
2019-05-12T10:01:09.796Z,1.40
2019-05-12T10:03:51.468Z,1.40
2019-05-12T10:06:21.528Z,1.57
2019-05-12T10:08:54.635Z,1.67
2019-05-12T10:11:23.687Z,1.50
2019-05-12T10:13:54.243Z,1.30
2019-05-12T10:16:25.475Z,1.33
2019-05-12T10:18:55.147Z,1.30
2019-05-12T10:21:24.805Z,1.40
2019-05-12T10:24:00.107Z,1.27
2019-05-12T10:26:25.845Z,1.40
2019-05-12T10:28:58.388Z,1.53
2019-05-12T10:31:29.473Z,1.20
2019-05-12T10:34:16.532Z,1.37
2019-05-12T10:36:49.215Z,1.10
2019-05-12T10:39:19.246Z,1.20
2019-05-12T10:41:49.456Z,1.23
2019-05-12T10:44:19.105Z,1.30
2019-05-12T10:46:53.774Z,1.63
2019-05-12T10:49:23.592Z,1.70
2019-05-12T10:51:54.022Z,1.47
2019-05-12T10:54:24.357Z,1.50
2019-05-12T10:56:54.715Z,1.30
2019-05-12T10:59:32.701Z,1.00
2019-05-12T11:01:56.173Z,1.20
2019-05-12T11:04:35.664Z,1.20
2019-05-12T11:06:57.209Z,1.10
2019-05-12T11:09:31.469Z,1.13
2019-05-12T11:11:58.239Z,1.10
2019-05-12T11:14:30.553Z,1.30
2019-05-12T11:17:02.128Z,1.20
2019-05-12T11:19:33.749Z,1.20
2019-05-12T11:22:03.809Z,1.10
2019-05-12T11:24:33.892Z,1.57
2019-05-12T11:27:04.164Z,1.00
2019-05-12T11:29:45.544Z,1.20
2019-05-12T11:32:05.757Z,1.33
2019-05-12T11:34:35.415Z,1.10
2019-05-12T11:37:05.126Z,1.20
2019-05-12T11:39:38.811Z,1.20
2019-05-12T11:42:06.569Z,1.00
2019-05-12T11:44:36.683Z,1.10
2019-05-12T11:47:06.338Z,1.30
2019-05-12T11:49:36.016Z,1.00
2019-05-12T11:52:13.255Z,1.30
2019-05-12T11:54:41.133Z,0.97
2019-05-12T11:57:09.280Z,1.40
2019-05-12T11:59:39.192Z,1.50
2019-05-12T12:02:08.901Z,1.47
2019-05-12T12:04:47.683Z,1.30
2019-05-12T12:07:17.537Z,1.20
2019-05-12T12:09:49.352Z,1.13
2019-05-12T12:12:18.926Z,1.00
2019-05-12T12:14:50.497Z,1.20
2019-05-12T12:17:25.082Z,1.10
2019-05-12T12:19:54.265Z,1.10
2019-05-12T12:22:26.458Z,0.90
2019-05-12T12:24:54.575Z,1.20
2019-05-12T12:27:24.225Z,1.40
2019-05-12T12:29:54.443Z,1.20
2019-05-12T12:32:24.368Z,1.10
2019-05-12T12:34:54.855Z,1.17
2019-05-12T12:37:25.737Z,1.10
2019-05-12T12:39:56.192Z,1.07
2019-05-12T12:42:30.260Z,1.30
2019-05-12T12:44:58.895Z,1.10
2019-05-12T12:47:28.709Z,1.40
2019-05-12T12:49:58.480Z,1.20
2019-05-12T12:52:28.476Z,1.00
2019-05-12T12:54:59.256Z,1.30
2019-05-12T12:57:30.115Z,1.20
2019-05-12T13:00:00.028Z,1.10
2019-05-12T13:02:29.749Z,1.10
2019-05-12T13:04:59.408Z,1.43
2019-05-12T13:07:29.072Z,1.10
2019-05-12T13:10:07.472Z,1.10
2019-05-12T13:12:32.912Z,1.20
2019-05-12T13:15:03.866Z,1.00
2019-05-12T13:17:36.419Z,1.10
2019-05-12T13:20:05.673Z,1.17
2019-05-12T13:22:35.379Z,1.00
2019-05-12T13:25:08.555Z,1.10
2019-05-12T13:27:37.024Z,0.97
2019-05-12T13:30:18.881Z,1.10
2019-05-12T13:32:38.928Z,1.00
2019-05-12T13:35:09.935Z,1.20
2019-05-12T13:37:40.603Z,1.00
2019-05-12T13:40:10.733Z,0.90
2019-05-12T13:42:40.613Z,0.97
2019-05-12T13:45:15.443Z,1.80
2019-05-12T13:47:43.773Z,1.30
2019-05-12T13:50:21.554Z,1.23
2019-05-12T13:52:44.843Z,1.37
2019-05-12T13:55:14.588Z,1.33
2019-05-12T13:57:52.297Z,1.13
2019-05-12T14:00:16.068Z,1.20
2019-05-12T14:02:48.845Z,1.30
2019-05-12T14:05:17.544Z,1.23
2019-05-12T14:07:50.093Z,1.30
2019-05-12T14:10:19.564Z,1.10
2019-05-12T14:12:49.288Z,1.30
2019-05-12T14:15:19.120Z,1.33
2019-05-12T14:17:48.808Z,1.23
2019-05-12T14:20:20.266Z,1.30
2019-05-12T14:22:50.415Z,1.20
2019-05-12T14:25:21.116Z,1.30
2019-05-12T14:27:53.608Z,1.43
2019-05-12T14:30:24.545Z,1.30
2019-05-12T14:32:58.968Z,1.20
2019-05-12T14:35:25.959Z,1.50
2019-05-12T14:37:55.620Z,1.27
2019-05-12T14:40:29.928Z,1.20
2019-05-12T14:42:56.876Z,1.27
2019-05-12T14:45:29.847Z,1.40
2019-05-12T14:47:59.979Z,1.10
2019-05-12T14:50:29.399Z,1.60
2019-05-12T14:52:59.848Z,1.60
2019-05-12T14:55:29.583Z,1.50
2019-05-12T14:57:59.225Z,1.23
2019-05-12T15:00:29.259Z,1.50
2019-05-12T15:02:59.155Z,1.20
2019-05-12T15:05:30.339Z,1.30
2019-05-12T15:08:00.554Z,1.13
2019-05-12T15:10:30.714Z,1.27
2019-05-12T15:13:03.321Z,1.00
2019-05-12T15:15:33.626Z,1.23
2019-05-12T15:18:09.282Z,1.17
2019-05-12T15:20:34.987Z,1.50
2019-05-12T15:23:04.632Z,1.27
2019-05-12T15:25:35.315Z,1.37
2019-05-12T15:28:05.696Z,1.70
2019-05-12T15:30:35.372Z,1.20
2019-05-12T15:33:05.050Z,1.37
2019-05-12T15:35:34.776Z,1.50
2019-05-12T15:38:09.281Z,1.43
2019-05-12T15:40:35.812Z,1.17
2019-05-12T15:43:08.792Z,1.50
2019-05-12T15:45:36.897Z,1.03
2019-05-12T15:48:06.792Z,1.30
2019-05-12T15:50:36.809Z,1.27
2019-05-12T15:53:06.906Z,1.33
2019-05-12T15:55:36.667Z,1.50
2019-05-12T15:58:06.396Z,2.00
2019-05-12T16:00:38.352Z,1.93
2019-05-12T16:03:08.120Z,1.33
2019-05-12T16:05:37.782Z,1.60
2019-05-12T16:08:07.435Z,1.33
2019-05-12T16:10:37.319Z,1.53
2019-05-12T16:13:07.287Z,1.50
2019-05-12T16:15:37.359Z,1.13
2019-05-12T16:18:09.855Z,1.47
2019-05-12T16:20:38.439Z,1.40
2019-05-12T16:23:08.174Z,1.30
2019-05-12T16:25:38.649Z,1.50
2019-05-12T16:28:15.150Z,1.37
2019-05-12T16:30:43.479Z,1.30
2019-05-12T16:33:20.572Z,1.60
2019-05-12T16:35:44.307Z,1.70
2019-05-12T16:38:19.702Z,1.53
2019-05-12T16:40:49.431Z,1.87
2019-05-12T16:43:16.999Z,1.93
2019-05-12T16:45:46.747Z,1.60
2019-05-12T16:48:29.424Z,1.90
2019-05-12T16:50:48.111Z,1.90
2019-05-12T16:53:21.618Z,2.90
2019-05-12T16:55:50.030Z,2.60
2019-05-12T16:58:24.396Z,2.13
2019-05-12T17:00:53.450Z,1.80
2019-05-12T17:03:24.380Z,1.60
2019-05-12T17:05:55.766Z,1.80
2019-05-12T17:08:25.499Z,2.10
2019-05-12T17:11:03.123Z,3.03
2019-05-12T17:13:26.831Z,2.30
2019-05-12T17:16:00.054Z,2.27
2019-05-12T17:18:28.139Z,2.30
2019-05-12T17:20:57.896Z,2.30
2019-05-12T17:23:27.681Z,1.83
2019-05-12T17:25:57.324Z,3.13
2019-05-12T17:28:26.979Z,2.80
2019-05-12T17:30:56.633Z,9.40
2019-05-12T17:33:27.659Z,2.20
2019-05-12T17:36:02.298Z,1.43
2019-05-12T17:38:30.189Z,1.40
2019-05-12T17:41:00.831Z,1.40
2019-05-12T17:43:30.831Z,1.80
2019-05-12T17:46:03.651Z,1.70
2019-05-12T17:48:37.056Z,1.10
2019-05-12T17:51:03.651Z,1.40
2019-05-12T17:53:36.016Z,1.70
2019-05-12T17:56:05.073Z,1.70
2019-05-12T17:58:36.120Z,1.70
2019-05-12T18:01:07.360Z,1.60
2019-05-12T18:03:39.328Z,1.83
2019-05-12T18:06:08.701Z,2.03
2019-05-12T18:08:38.866Z,1.60
2019-05-12T18:11:11.418Z,1.70
2019-05-12T18:13:40.249Z,1.70
2019-05-12T18:16:11.528Z,1.50
2019-05-12T18:18:43.487Z,1.63
2019-05-12T18:21:21.123Z,1.60
2019-05-12T18:23:44.319Z,1.60
2019-05-12T18:26:16.170Z,1.90
2019-05-12T18:28:45.980Z,1.43
2019-05-12T18:31:15.618Z,1.40
2019-05-12T18:33:52.008Z,1.63
2019-05-12T18:36:17.095Z,1.70
2019-05-12T18:38:47.168Z,1.40
2019-05-12T18:41:16.812Z,1.40
2019-05-12T18:43:46.487Z,1.60
2019-05-12T18:46:16.222Z,1.63
2019-05-12T18:48:45.980Z,1.83
2019-05-12T18:51:17.318Z,1.60
2019-05-12T18:53:48.240Z,1.70
2019-05-12T18:56:21.824Z,1.90
2019-05-12T18:58:49.240Z,1.53
2019-05-12T19:01:19.088Z,1.47
2019-05-12T19:03:51.140Z,1.90
2019-05-12T19:06:20.521Z,1.53
2019-05-12T19:08:50.190Z,1.50
2019-05-12T19:11:23.614Z,1.70
2019-05-12T19:13:57.005Z,1.50
2019-05-12T19:16:24.015Z,1.40
2019-05-12T19:18:55.721Z,1.67
2019-05-12T19:21:25.254Z,1.50
2019-05-12T19:23:55.247Z,1.43
2019-05-12T19:26:24.891Z,1.50
2019-05-12T19:28:57.841Z,1.90
2019-05-12T19:31:26.435Z,2.00
2019-05-12T19:34:14.407Z,2.20
2019-05-12T19:36:27.631Z,1.63
2019-05-12T19:38:57.303Z,1.73
2019-05-12T19:41:30.826Z,1.43
2019-05-12T19:43:58.319Z,1.53
2019-05-12T19:46:27.976Z,1.77
2019-05-12T19:48:57.787Z,1.87
2019-05-12T19:51:28.393Z,1.90
2019-05-12T19:53:58.279Z,2.00
2019-05-12T19:56:34.244Z,2.00
2019-05-12T19:58:59.750Z,1.40
2019-05-12T20:01:32.811Z,1.70
2019-05-12T20:04:03.410Z,1.93
2019-05-12T20:06:33.707Z,1.80
2019-05-12T20:09:10.485Z,1.80
2019-05-12T20:11:37.135Z,1.93
2019-05-12T20:14:09.969Z,1.73
2019-05-12T20:16:39.148Z,1.90
2019-05-12T20:19:08.796Z,1.70
2019-05-12T20:21:38.475Z,1.80
2019-05-12T20:24:08.535Z,1.87
2019-05-12T20:26:38.700Z,1.83
2019-05-12T20:29:09.536Z,1.60
2019-05-12T20:31:47.020Z,1.90
2019-05-12T20:34:11.252Z,2.17
2019-05-12T20:36:44.422Z,2.13
2019-05-12T20:39:16.863Z,2.57
2019-05-12T20:41:45.020Z,1.90
2019-05-12T20:44:17.243Z,1.80
2019-05-12T20:46:46.319Z,2.40
2019-05-12T20:49:15.963Z,2.20
2019-05-12T20:51:48.180Z,2.00
2019-05-12T20:54:18.176Z,1.90
2019-05-12T20:56:53.016Z,2.10
2019-05-12T20:59:22.163Z,2.43
2019-05-12T21:01:52.093Z,2.00
2019-05-12T21:04:31.843Z,2.20
2019-05-12T21:06:54.153Z,2.00
2019-05-12T21:09:24.251Z,1.93
2019-05-12T21:11:54.839Z,1.90
2019-05-12T21:14:25.085Z,2.17
2019-05-12T21:16:54.907Z,2.13
2019-05-12T21:19:29.177Z,2.07
2019-05-12T21:21:59.020Z,2.30
2019-05-12T21:24:29.511Z,2.00
2019-05-12T21:26:59.496Z,1.97
2019-05-12T21:29:30.111Z,2.40
2019-05-12T21:32:03.005Z,2.00
2019-05-12T21:34:31.264Z,2.10
2019-05-12T21:37:05.140Z,2.40
2019-05-12T21:39:33.539Z,2.23
2019-05-12T21:42:03.990Z,2.30
2019-05-12T21:44:33.967Z,2.10
2019-05-12T21:47:09.548Z,1.90
2019-05-12T21:49:35.067Z,2.10
2019-05-12T21:52:06.532Z,2.10
2019-05-12T21:54:39.597Z,2.30
2019-05-12T21:57:08.932Z,2.60
2019-05-12T21:59:39.693Z,2.30
2019-05-12T22:02:10.497Z,2.40
2019-05-12T22:04:41.511Z,2.17
2019-05-12T22:07:11.903Z,2.40
2019-05-12T22:09:46.931Z,2.23
2019-05-12T22:12:13.491Z,2.67
2019-05-12T22:14:46.247Z,2.40
2019-05-12T22:17:15.232Z,2.30
2019-05-12T22:19:44.868Z,1.97
2019-05-12T22:22:19.667Z,2.60
2019-05-12T22:24:45.939Z,2.27
2019-05-12T22:27:21.923Z,2.00
2019-05-12T22:29:46.963Z,2.30
2019-05-12T22:32:19.050Z,2.33
2019-05-12T22:34:48.030Z,2.20
2019-05-12T22:37:17.720Z,2.70
2019-05-12T22:39:47.428Z,2.40
2019-05-12T22:42:21.539Z,2.30
2019-05-12T22:44:55.327Z,2.00
2019-05-12T22:47:20.176Z,2.20
2019-05-12T22:49:52.066Z,2.03
2019-05-12T22:52:23.880Z,2.90
2019-05-12T22:54:53.795Z,2.40
2019-05-12T22:57:24.327Z,2.20
2019-05-12T22:59:54.601Z,2.40
2019-05-12T23:02:28.901Z,2.20
2019-05-12T23:04:55.916Z,2.40
2019-05-12T23:07:29.762Z,2.10
2019-05-12T23:10:00.681Z,2.20
2019-05-12T23:12:29.065Z,2.30
2019-05-12T23:15:02.824Z,2.67
2019-05-12T23:17:30.673Z,2.30
2019-05-12T23:20:00.337Z,2.50
2019-05-12T23:22:35.071Z,2.40
2019-05-12T23:25:03.962Z,2.40
2019-05-12T23:27:33.527Z,2.40
2019-05-12T23:30:10.753Z,2.50
2019-05-12T23:32:35.095Z,2.30
2019-05-12T23:35:05.663Z,2.50
2019-05-12T23:37:40.026Z,2.40
2019-05-12T23:40:11.623Z,2.43
2019-05-12T23:42:38.576Z,3.00
2019-05-12T23:45:08.658Z,2.80
2019-05-12T23:47:38.500Z,2.50
2019-05-12T23:50:08.579Z,2.93
2019-05-12T23:52:38.257Z,2.40
2019-05-12T23:55:08.004Z,2.73
2019-05-12T23:57:37.960Z,2.30
